Time;durP1;ratioP1;P1;durP2;ratioP2;P2;SDS_P1;SDS_P2;PMS_P1;PMS_P2;Temp;Humidity;BMP_temperature;BMP_pressure;BME280_temperature;BME280_humidity;BME280_pressure;Samples;Min_cycle;Max_cycle;Signal;HPM_P1;HPM_P2
2022/01/06 00:00:11;;;;;;;6.22;1.65;;;7.30;62.80;;;;;;5052555;28;20094;-70
2022/01/06 00:02:37;;;;;;;6.03;1.98;;;7.30;62.10;;;;;;5051341;28;20506;-70
2022/01/06 00:05:03;;;;;;;5.40;1.65;;;7.20;62.00;;;;;;5051751;28;20112;-70
2022/01/06 00:07:29;;;;;;;4.97;1.73;;;7.20;62.30;;;;;;5051664;28;20418;-70
2022/01/06 00:09:55;;;;;;;5.75;1.88;;;7.20;62.30;;;;;;5052518;28;20052;-71
2022/01/06 00:12:26;;;;;;;4.90;1.90;;;7.20;62.20;;;;;;5052995;28;20032;-70
2022/01/06 00:15:07;;;;;;;5.90;1.90;;;7.20;61.70;;;;;;5051400;28;20118;-70
2022/01/06 00:25:34;;;;;;;3.67;1.52;;;7.20;61.80;;;;;;5043217;28;20173;-71
2022/01/06 00:28:00;;;;;;;5.45;1.85;;;7.20;61.50;;;;;;5051721;28;20061;-70
2022/01/06 00:30:26;;;;;;;4.88;1.55;;;7.20;61.40;;;;;;5062030;28;20024;-70
2022/01/06 00:32:51;;;;;;;5.80;1.70;;;7.20;61.20;;;;;;5050845;28;20089;-70
2022/01/06 00:35:17;;;;;;;6.07;1.85;;;7.10;61.40;;;;;;5050603;28;20087;-71
2022/01/06 00:37:43;;;;;;;6.43;1.90;;;7.20;61.20;;;;;;5050940;28;20036;-71
2022/01/06 00:40:09;;;;;;;7.05;2.10;;;7.10;61.30;;;;;;5050708;28;20548;-70
2022/01/06 00:42:35;;;;;;;5.47;1.75;;;7.00;61.40;;;;;;5053742;28;20036;-70
2022/01/06 00:45:01;;;;;;;5.68;1.73;;;7.10;61.30;;;;;;5050823;28;20021;-71
2022/01/06 00:47:27;;;;;;;4.50;1.70;;;7.10;61.10;;;;;;5050347;28;20033;-70
2022/01/06 00:49:52;;;;;;;5.32;1.80;;;7.10;61.50;;;;;;5050562;28;20025;-70
2022/01/06 00:52:18;;;;;;;5.28;1.60;;;7.10;61.20;;;;;;5050521;28;20049;-70
2022/01/06 00:54:44;;;;;;;5.75;1.88;;;7.20;61.30;;;;;;5052852;28;20052;-71
2022/01/06 00:57:09;;;;;;;5.10;1.83;;;7.10;61.20;;;;;;5051511;28;20039;-71
2022/01/06 00:59:35;;;;;;;6.95;1.85;;;7.20;61.80;;;;;;5050322;28;20029;-71
2022/01/06 01:02:01;;;;;;;5.07;2.38;;;7.20;61.40;;;;;;5050806;28;20083;-70
2022/01/06 01:04:26;;;;;;;5.05;1.70;;;7.20;61.90;;;;;;5050832;28;20024;-70
2022/01/06 01:06:52;;;;;;;7.57;1.80;;;7.10;62.20;;;;;;5052672;28;20029;-70
2022/01/06 01:09:18;;;;;;;6.25;1.60;;;7.20;62.10;;;;;;5053338;28;20031;-70
2022/01/06 01:11:44;;;;;;;6.30;1.45;;;7.20;62.20;;;;;;5050316;28;20095;-70
2022/01/06 01:14:25;;;;;;;8.15;1.58;;;7.20;62.90;;;;;;5050034;28;20035;-70
2022/01/06 01:16:55;;;;;;;5.90;1.58;;;7.20;62.50;;;;;;5043245;28;20491;-71
2022/01/06 01:19:21;;;;;;;5.88;2.13;;;7.20;62.60;;;;;;5049962;28;20013;-70
2022/01/06 01:21:48;;;;;;;6.03;1.80;;;7.20;62.90;;;;;;5052334;28;20462;-70
2022/01/06 01:24:14;;;;;;;4.68;1.60;;;7.20;62.80;;;;;;5051067;28;20037;-70
2022/01/06 01:26:40;;;;;;;4.25;1.40;;;7.10;62.70;;;;;;5049735;28;20017;-71
2022/01/06 01:29:13;;;;;;;5.38;1.75;;;7.10;63.10;;;;;;5050275;28;20506;-71
2022/01/06 01:31:44;;;;;;;7.30;1.50;;;7.20;63.20;;;;;;5050003;28;20086;-70
2022/01/06 01:34:10;;;;;;;5.45;2.08;;;7.10;63.40;;;;;;5049548;28;20032;-70
2022/01/06 01:36:36;;;;;;;7.53;1.83;;;7.10;63.50;;;;;;5052425;28;20429;-70
2022/01/06 01:39:03;;;;;;;4.88;1.60;;;7.10;63.90;;;;;;5051727;28;20364;-71
2022/01/06 01:41:29;;;;;;;6.25;1.92;;;7.20;64.00;;;;;;5049866;28;20029;-71
2022/01/06 01:43:55;;;;;;;4.97;1.80;;;7.10;63.30;;;;;;5049313;28;20040;-70
2022/01/06 01:46:28;;;;;;;3.63;1.60;;;7.20;62.80;;;;;;5057826;28;20419;-71
2022/01/06 01:51:40;;;;;;;3.60;1.60;;;7.20;62.70;;;;;;5051319;28;20132;-70
2022/01/06 01:54:08;;;;;;;6.63;1.60;;;7.10;62.80;;;;;;5050113;28;20057;-70
2022/01/06 01:56:34;;;;;;;3.67;1.30;;;7.00;63.10;;;;;;5049237;28;20028;-70
2022/01/06 01:59:00;;;;;;;5.45;1.85;;;7.20;63.10;;;;;;5050683;28;20033;-71
2022/01/06 02:01:26;;;;;;;5.13;1.80;;;7.10;62.80;;;;;;5049597;28;20807;-71
2022/01/06 02:03:52;;;;;;;7.38;1.90;;;7.10;62.80;;;;;;5051572;28;20033;-70
2022/01/06 02:06:19;;;;;;;4.07;1.55;;;7.20;62.50;;;;;;5050240;28;20036;-70
2022/01/06 02:08:45;;;;;;;4.68;1.67;;;7.30;62.20;;;;;;5048991;28;20040;-70
2022/01/06 02:11:10;;;;;;;3.45;1.27;;;7.20;62.00;;;;;;5049372;28;20021;-70
2022/01/06 02:13:52;;;;;;;5.45;1.85;;;7.30;61.90;;;;;;5049069;28;20411;-71
2022/01/06 02:16:27;;;;;;;5.20;1.73;;;7.20;62.40;;;;;;5045024;28;20063;-70
2022/01/06 02:18:53;;;;;;;7.97;2.22;;;7.20;62.00;;;;;;5048158;28;20066;-71
2022/01/06 02:21:20;;;;;;;2.15;1.30;;;7.30;61.90;;;;;;5049622;28;20435;-71
2022/01/06 02:23:46;;;;;;;3.95;1.65;;;7.20;62.00;;;;;;5051231;28;20033;-70
2022/01/06 02:26:12;;;;;;;5.03;1.60;;;7.10;61.50;;;;;;5048823;28;20071;-71
2022/01/06 02:28:40;;;;;;;4.60;1.60;;;7.10;62.00;;;;;;5048606;28;20442;-71
2022/01/06 02:31:07;;;;;;;6.10;1.60;;;7.20;62.40;;;;;;5042840;28;20029;-71
2022/01/06 02:33:33;;;;;;;3.63;1.60;;;7.20;62.10;;;;;;5049450;28;20044;-71
2022/01/06 02:35:58;;;;;;;4.43;1.70;;;7.20;61.90;;;;;;5048481;28;20037;-70
2022/01/06 02:38:24;;;;;;;5.05;1.58;;;7.20;61.80;;;;;;5048900;28;20055;-70
2022/01/06 02:40:51;;;;;;;4.82;1.50;;;7.20;61.90;;;;;;5048232;28;20025;-70
2022/01/06 02:43:18;;;;;;;5.38;1.88;;;7.10;62.00;;;;;;5047980;28;20099;-70
2022/01/06 02:45:47;;;;;;;4.20;1.30;;;7.10;61.70;;;;;;5050717;28;20025;-71
2022/01/06 02:48:14;;;;;;;5.55;1.80;;;7.10;62.30;;;;;;5049014;28;20079;-70
2022/01/06 02:50:46;;;;;;;8.18;1.90;;;7.20;61.90;;;;;;5048473;28;20053;-70
2022/01/06 02:53:13;;;;;;;5.88;1.60;;;7.20;61.80;;;;;;5048146;28;20091;-70
2022/01/06 02:55:47;;;;;;;6.70;2.13;;;7.20;61.70;;;;;;5048145;28;20036;-70
2022/01/06 02:58:13;;;;;;;6.55;2.00;;;7.20;61.80;;;;;;5048535;28;20021;-71
2022/01/06 03:00:39;;;;;;;5.28;1.65;;;7.20;61.60;;;;;;5059738;28;20028;-71
2022/01/06 03:03:05;;;;;;;6.22;1.55;;;7.20;61.50;;;;;;5048381;28;20411;-70
2022/01/06 03:05:30;;;;;;;6.45;1.60;;;7.20;62.00;;;;;;5047988;28;20067;-70
2022/01/06 03:07:56;;;;;;;4.25;1.60;;;7.30;61.60;;;;;;5047986;28;20028;-70
2022/01/06 03:10:23;;;;;;;7.03;1.40;;;7.30;62.10;;;;;;5048078;28;20396;-70
2022/01/06 03:12:49;;;;;;;6.20;1.63;;;7.20;61.90;;;;;;5050078;28;20025;-70
2022/01/06 03:15:20;;;;;;;5.00;1.65;;;7.20;62.10;;;;;;5049221;28;20037;-70
2022/01/06 03:17:51;;;;;;;4.60;1.50;;;7.30;62.50;;;;;;5047405;28;20025;-71
2022/01/06 03:20:19;;;;;;;4.75;1.58;;;7.30;62.60;;;;;;5047873;28;20057;-71
2022/01/06 03:22:45;;;;;;;8.55;1.70;;;7.30;62.70;;;;;;5047625;28;20025;-70
2022/01/06 03:25:13;;;;;;;4.35;1.70;;;7.20;62.60;;;;;;5048116;28;20029;-70
2022/01/06 03:27:40;;;;;;;3.22;1.40;;;7.20;63.00;;;;;;5050921;28;20505;-70
2022/01/06 03:30:09;;;;;;;3.97;1.52;;;7.20;63.20;;;;;;5048213;28;20484;-70
2022/01/06 03:32:35;;;;;;;6.35;1.60;;;7.20;63.60;;;;;;5047268;28;20040;-71
2022/01/06 03:35:01;;;;;;;5.95;1.70;;;7.10;64.20;;;;;;5048223;28;20391;-70
2022/01/06 03:37:26;;;;;;;3.92;1.40;;;7.00;64.40;;;;;;5047610;28;20029;-70
2022/01/06 03:39:53;;;;;;;5.20;1.85;;;7.00;64.10;;;;;;5050228;28;20028;-70
2022/01/06 03:42:18;;;;;;;5.22;1.70;;;7.10;64.20;;;;;;5049222;28;20380;-70
2022/01/06 03:44:44;;;;;;;4.10;1.50;;;7.10;63.90;;;;;;5047780;28;20068;-71
2022/01/06 03:47:10;;;;;;;4.15;1.65;;;7.10;64.00;;;;;;5047123;28;20037;-71
2022/01/06 03:49:36;;;;;;;4.38;1.65;;;7.10;64.00;;;;;;5048134;28;20021;-70
2022/01/06 03:52:02;;;;;;;2.90;1.40;;;7.20;63.80;;;;;;5049080;28;20074;-70
2022/01/06 03:54:29;;;;;;;4.40;1.65;;;7.20;63.80;;;;;;5050819;28;20049;-70
2022/01/06 03:56:56;;;;;;;3.35;1.50;;;7.20;63.60;;;;;;5049958;28;20028;-70
2022/01/06 03:59:22;;;;;;;6.32;1.88;;;7.20;63.70;;;;;;5049821;28;20025;-70
2022/01/06 04:01:47;;;;;;;5.70;1.50;;;7.20;64.30;;;;;;5048726;28;20025;-70
2022/01/06 04:04:14;;;;;;;5.05;1.50;;;7.10;64.50;;;;;;5049332;28;20527;-71
2022/01/06 04:06:40;;;;;;;5.47;1.52;;;7.10;64.40;;;;;;5050867;28;20033;-70
2022/01/06 04:09:06;;;;;;;6.18;2.05;;;7.10;64.20;;;;;;5049126;28;20403;-71
2022/01/06 04:11:32;;;;;;;3.65;1.48;;;7.10;63.70;;;;;;5047773;28;20123;-70
2022/01/06 04:13:58;;;;;;;4.78;1.77;;;7.20;64.10;;;;;;5049087;28;20487;-70
2022/01/06 04:16:26;;;;;;;5.60;1.67;;;7.20;63.90;;;;;;5047667;28;20032;-70
2022/01/06 04:18:51;;;;;;;3.08;1.30;;;7.20;64.20;;;;;;5049648;28;20086;-70
2022/01/06 04:21:17;;;;;;;6.93;1.83;;;7.20;63.80;;;;;;5048278;28;20033;-71
2022/01/06 04:23:43;;;;;;;3.70;1.65;;;7.20;63.30;;;;;;5047418;28;20365;-70
2022/01/06 04:26:09;;;;;;;6.07;1.90;;;7.20;63.40;;;;;;5048027;28;20115;-70
2022/01/06 04:28:36;;;;;;;5.13;1.60;;;7.20;63.60;;;;;;5047458;28;20399;-70
2022/01/06 04:31:02;;;;;;;5.18;1.50;;;7.20;63.50;;;;;;5047755;28;20373;-70
2022/01/06 04:33:28;;;;;;;4.28;1.63;;;7.20;63.90;;;;;;5050060;28;20063;-70
2022/01/06 04:35:53;;;;;;;4.10;1.70;;;7.20;63.70;;;;;;5049121;28;20033;-70
2022/01/06 04:38:21;;;;;;;4.60;1.73;;;7.20;63.80;;;;;;5049362;28;20033;-70
2022/01/06 04:40:47;;;;;;;3.65;1.58;;;7.20;63.80;;;;;;5049469;28;20029;-70
2022/01/06 04:43:13;;;;;;;4.45;2.13;;;7.20;63.90;;;;;;5051715;28;20037;-70
2022/01/06 04:45:38;;;;;;;2.95;1.50;;;7.20;63.90;;;;;;5053517;28;20031;-70
2022/01/06 04:48:04;;;;;;;4.45;1.83;;;7.20;63.20;;;;;;5053600;28;20075;-70
2022/01/06 04:50:30;;;;;;;4.75;1.80;;;7.30;62.90;;;;;;5052932;28;20464;-71
2022/01/06 04:52:56;;;;;;;2.55;1.50;;;7.30;62.30;;;;;;5052979;28;20075;-70
2022/01/06 04:55:21;;;;;;;5.43;1.70;;;7.30;61.90;;;;;;5053063;28;20087;-70
2022/01/06 04:57:47;;;;;;;5.15;1.90;;;7.30;62.20;;;;;;5052777;28;20111;-70
2022/01/06 05:00:13;;;;;;;4.80;1.50;;;7.30;62.10;;;;;;5053419;28;20033;-70
2022/01/06 05:02:39;;;;;;;6.10;1.70;;;7.30;61.90;;;;;;5052654;28;20391;-70
2022/01/06 05:05:05;;;;;;;4.93;1.50;;;7.30;62.10;;;;;;5052873;28;20027;-70
2022/01/06 05:07:32;;;;;;;7.32;1.80;;;7.30;61.90;;;;;;5052420;28;20021;-70
2022/01/06 05:09:57;;;;;;;3.17;1.48;;;7.30;62.70;;;;;;5053186;28;20028;-70
2022/01/06 05:12:23;;;;;;;3.00;1.48;;;7.30;62.30;;;;;;5053127;28;20029;-70
2022/01/06 05:14:49;;;;;;;8.93;1.98;;;7.30;62.70;;;;;;5051950;28;20075;-70
2022/01/06 05:17:14;;;;;;;5.10;1.92;;;7.30;62.70;;;;;;5052178;28;20040;-70
2022/01/06 05:19:40;;;;;;;3.78;1.45;;;7.30;63.20;;;;;;5052666;28;20013;-70
2022/01/06 05:22:06;;;;;;;6.47;1.90;;;7.20;63.30;;;;;;5052690;28;20557;-70
2022/01/06 05:24:33;;;;;;;3.30;1.40;;;7.20;63.20;;;;;;5053326;28;20087;-71
2022/01/06 05:26:58;;;;;;;7.22;1.75;;;7.20;63.40;;;;;;5051851;28;20029;-73
2022/01/06 05:29:24;;;;;;;5.30;1.92;;;7.20;63.50;;;;;;5052441;28;20066;-70
2022/01/06 05:31:51;;;;;;;4.70;1.70;;;7.20;63.30;;;;;;5052115;28;20493;-71
2022/01/06 05:34:16;;;;;;;4.38;1.50;;;7.20;63.80;;;;;;5044262;28;20021;-70
2022/01/06 05:36:42;;;;;;;5.43;1.60;;;7.20;63.50;;;;;;5052204;28;20025;-70
2022/01/06 05:39:08;;;;;;;3.25;1.50;;;7.20;63.00;;;;;;5053289;28;20492;-70
2022/01/06 05:41:34;;;;;;;3.80;1.60;;;7.10;63.50;;;;;;5051541;28;20037;-70
2022/01/06 05:44:00;;;;;;;4.47;1.58;;;7.20;63.40;;;;;;5051606;28;20036;-70
2022/01/06 05:46:26;;;;;;;2.67;1.20;;;7.20;63.30;;;;;;5052361;28;20031;-70
2022/01/06 05:48:52;;;;;;;3.90;1.95;;;7.20;63.00;;;;;;5051826;28;20071;-70
2022/01/06 05:51:17;;;;;;;4.28;2.00;;;7.20;63.20;;;;;;5052647;28;20082;-71
2022/01/06 05:53:43;;;;;;;4.72;1.50;;;7.20;63.30;;;;;;5051126;28;20048;-70
2022/01/06 05:56:09;;;;;;;4.68;1.55;;;7.20;63.00;;;;;;5050817;28;20032;-70
2022/01/06 05:58:37;;;;;;;6.03;2.00;;;7.30;63.10;;;;;;5051266;28;20033;-70
2022/01/06 06:01:03;;;;;;;8.10;1.83;;;7.20;63.50;;;;;;5050814;28;20028;-71
2022/01/06 06:03:29;;;;;;;4.32;1.65;;;7.30;63.40;;;;;;5052249;28;20033;-70
2022/01/06 06:05:55;;;;;;;3.55;1.58;;;7.30;63.60;;;;;;5050857;28;20033;-70
2022/01/06 06:08:21;;;;;;;5.95;1.50;;;7.30;63.40;;;;;;5044261;28;20052;-70
2022/01/06 06:10:46;;;;;;;3.80;1.73;;;7.30;64.00;;;;;;5050475;28;20480;-71
2022/01/06 06:13:12;;;;;;;4.13;1.77;;;7.30;63.90;;;;;;5051097;28;20120;-70
2022/01/06 06:15:38;;;;;;;5.40;1.83;;;7.30;64.00;;;;;;5052414;28;20104;-70
2022/01/06 06:18:05;;;;;;;4.30;1.52;;;7.30;64.50;;;;;;5050537;28;20028;-70
2022/01/06 06:20:31;;;;;;;4.88;1.70;;;7.30;64.20;;;;;;5050372;28;20483;-70
2022/01/06 06:22:57;;;;;;;5.15;1.80;;;7.30;64.80;;;;;;5050498;28;20036;-71
2022/01/06 06:25:23;;;;;;;8.18;1.67;;;7.30;65.00;;;;;;5041683;28;20032;-70
2022/01/06 06:27:49;;;;;;;6.05;1.90;;;7.30;65.20;;;;;;5051098;28;20025;-70
2022/01/06 06:30:15;;;;;;;4.88;1.60;;;7.30;65.20;;;;;;5051053;28;20033;-70
2022/01/06 06:32:40;;;;;;;5.22;2.05;;;7.20;65.40;;;;;;5050175;28;20090;-70
2022/01/06 06:35:06;;;;;;;6.18;2.00;;;7.30;65.70;;;;;;5049998;28;20039;-70
2022/01/06 06:37:32;;;;;;;4.90;1.85;;;7.30;66.40;;;;;;5049798;28;20518;-71
2022/01/06 06:39:58;;;;;;;6.07;1.70;;;7.30;66.20;;;;;;5049829;28;20064;-70
2022/01/06 06:42:30;;;;;;;5.70;1.90;;;7.30;66.30;;;;;;5051848;28;20114;-70
2022/01/06 06:44:56;;;;;;;3.80;1.70;;;7.20;66.60;;;;;;5049775;28;20036;-70
2022/01/06 06:47:23;;;;;;;7.63;2.28;;;7.30;66.40;;;;;;5049383;28;20028;-70
2022/01/06 06:49:48;;;;;;;5.95;2.05;;;7.30;66.80;;;;;;5049511;28;20510;-70
2022/01/06 06:52:14;;;;;;;6.05;1.92;;;7.30;66.70;;;;;;5048638;28;20037;-70
2022/01/06 06:54:40;;;;;;;6.72;2.20;;;7.30;66.90;;;;;;5050483;28;20067;-71
2022/01/06 06:57:06;;;;;;;9.35;2.55;;;7.30;67.20;;;;;;5049536;28;20096;-70
2022/01/06 06:59:32;;;;;;;6.20;2.30;;;7.30;67.20;;;;;;5048569;28;20094;-70
2022/01/06 07:01:58;;;;;;;4.72;1.73;;;7.30;67.20;;;;;;5049249;28;20447;-70
2022/01/06 07:04:23;;;;;;;6.65;2.20;;;7.30;67.30;;;;;;5048265;28;20045;-71
2022/01/06 07:06:49;;;;;;;4.38;1.70;;;7.30;67.20;;;;;;5049862;28;20028;-70
2022/01/06 07:09:15;;;;;;;6.93;2.10;;;7.30;66.80;;;;;;5048176;28;20041;-70
2022/01/06 07:11:41;;;;;;;5.50;1.95;;;7.30;67.30;;;;;;5048627;28;20021;-70
2022/01/06 07:14:07;;;;;;;7.60;1.98;;;7.30;67.30;;;;;;5048380;28;20079;-69
2022/01/06 07:16:33;;;;;;;6.68;2.58;;;7.30;67.60;;;;;;5047888;28;20024;-70
2022/01/06 07:18:58;;;;;;;9.70;2.33;;;7.30;67.10;;;;;;5049201;28;20411;-70
2022/01/06 07:21:24;;;;;;;4.95;1.90;;;7.30;67.20;;;;;;5050558;28;20024;-70
2022/01/06 07:23:52;;;;;;;4.80;1.83;;;7.30;67.30;;;;;;5049655;28;20037;-70
2022/01/06 07:26:18;;;;;;;8.60;2.28;;;7.30;66.60;;;;;;5049103;28;20025;-70
2022/01/06 07:28:43;;;;;;;8.18;2.13;;;7.30;66.90;;;;;;5054393;28;20509;-70
2022/01/06 07:31:09;;;;;;;3.92;1.92;;;7.30;66.50;;;;;;5048084;28;20038;-70
2022/01/06 07:33:35;;;;;;;5.50;2.05;;;7.30;67.20;;;;;;5050648;28;20346;-70
2022/01/06 07:36:01;;;;;;;10.63;2.17;;;7.30;66.80;;;;;;5047776;28;20487;-71
2022/01/06 07:38:26;;;;;;;6.45;2.00;;;7.30;66.90;;;;;;5047481;28;20044;-70
2022/01/06 07:40:52;;;;;;;6.60;2.30;;;7.30;67.10;;;;;;5047427;28;20110;-70
2022/01/06 07:43:18;;;;;;;7.65;2.13;;;7.30;67.00;;;;;;5047205;28;20040;-71
2022/01/06 07:45:44;;;;;;;5.32;2.17;;;7.40;66.50;;;;;;5049392;28;20028;-71
2022/01/06 07:48:25;;;;;;;3.60;1.42;;;7.40;66.50;;;;;;5048582;28;20024;-70
2022/01/06 07:50:52;;;;;;;4.80;1.60;;;7.40;65.90;;;;;;5045673;28;20037;-70
2022/01/06 07:53:18;;;;;;;6.03;1.63;;;7.40;65.90;;;;;;5046907;28;20049;-70
2022/01/06 07:55:44;;;;;;;7.53;2.08;;;7.40;65.90;;;;;;5047638;28;20071;-71
2022/01/06 07:58:09;;;;;;;9.13;2.13;;;7.40;66.00;;;;;;5041942;28;20487;-71
2022/01/06 08:00:35;;;;;;;5.00;1.67;;;7.50;65.60;;;;;;5044374;28;20400;-71
2022/01/06 08:03:02;;;;;;;4.68;1.60;;;7.40;65.80;;;;;;5043087;28;20076;-71
2022/01/06 08:05:28;;;;;;;5.60;2.00;;;7.40;66.00;;;;;;5042687;28;20044;-71
2022/01/06 08:07:55;;;;;;;6.68;1.90;;;7.50;66.20;;;;;;5043339;28;20029;-72
2022/01/06 08:10:21;;;;;;;7.53;2.03;;;7.60;65.50;;;;;;5043676;28;20404;-71
2022/01/06 08:12:47;;;;;;;8.48;2.25;;;7.60;65.50;;;;;;5045397;28;20482;-71
2022/01/06 08:15:16;;;;;;;7.18;1.70;;;7.70;65.30;;;;;;5043506;28;20025;-71
2022/01/06 08:17:42;;;;;;;3.63;1.80;;;7.70;65.60;;;;;;5041696;28;20029;-70
2022/01/06 08:20:10;;;;;;;6.65;1.90;;;7.80;65.50;;;;;;5046839;28;20079;-72
2022/01/06 08:22:36;;;;;;;4.63;2.20;;;7.80;65.30;;;;;;5047074;28;20051;-71
2022/01/06 08:25:07;;;;;;;7.88;1.85;;;7.90;65.20;;;;;;5048237;28;20703;-71
2022/01/06 08:27:33;;;;;;;4.65;1.90;;;8.00;64.90;;;;;;5046626;28;20793;-71
2022/01/06 08:30:00;;;;;;;5.63;2.05;;;8.20;64.00;;;;;;5040293;28;20029;-72
2022/01/06 08:32:26;;;;;;;7.72;1.90;;;8.60;63.40;;;;;;5049095;28;20021;-72
2022/01/06 08:34:51;;;;;;;6.53;2.10;;;9.10;62.10;;;;;;5045914;28;20044;-73
2022/01/06 08:37:18;;;;;;;6.13;2.30;;;10.40;58.90;;;;;;5040820;28;20029;-71
2022/01/06 08:39:44;;;;;;;7.20;2.08;;;12.30;54.50;;;;;;5040336;28;20056;-72
2022/01/06 08:42:12;;;;;;;5.90;1.80;;;13.80;50.20;;;;;;5057103;28;20034;-72
2022/01/06 08:44:39;;;;;;;4.53;1.80;;;14.90;48.30;;;;;;5051017;28;20040;-72
2022/01/06 08:47:06;;;;;;;7.72;1.90;;;15.50;46.40;;;;;;5050139;28;20510;-72
2022/01/06 08:49:32;;;;;;;5.55;2.03;;;15.80;45.40;;;;;;5049011;28;20032;-72
2022/01/06 08:51:58;;;;;;;5.75;2.10;;;16.10;44.80;;;;;;5050171;28;20013;-73
2022/01/06 08:54:23;;;;;;;7.10;2.17;;;15.60;45.80;;;;;;5053070;28;20052;-73
2022/01/06 08:56:49;;;;;;;5.75;1.55;;;15.40;46.20;;;;;;5049254;28;20104;-73
2022/01/06 08:59:15;;;;;;;5.40;1.52;;;14.60;46.80;;;;;;5048027;28;20067;-73
2022/01/06 09:01:41;;;;;;;6.53;1.42;;;13.60;48.90;;;;;;5048997;28;20074;-76
2022/01/06 09:04:06;;;;;;;6.45;2.05;;;12.90;50.50;;;;;;5044158;28;20056;-75
2022/01/06 09:06:32;;;;;;;6.55;1.95;;;12.60;50.50;;;;;;5051908;28;20044;-75
2022/01/06 09:08:58;;;;;;;7.65;2.35;;;12.40;50.90;;;;;;5049290;28;20068;-75
2022/01/06 09:11:23;;;;;;;8.52;2.92;;;11.90;51.60;;;;;;5050432;28;20099;-78
2022/01/06 09:13:49;;;;;;;5.72;1.70;;;11.60;52.90;;;;;;5048751;28;20021;-79
2022/01/06 09:16:15;;;;;;;5.38;1.70;;;11.40;53.40;;;;;;5049129;28;20467;-78
2022/01/06 09:18:41;;;;;;;6.63;1.70;;;11.30;53.50;;;;;;5052646;28;20074;-76
2022/01/06 09:21:08;;;;;;;8.00;1.70;;;11.30;53.60;;;;;;5052578;28;20029;-77
2022/01/06 09:23:35;;;;;;;7.78;1.90;;;11.40;53.50;;;;;;5048266;28;20037;-77
2022/01/06 09:26:00;;;;;;;8.05;2.10;;;11.30;53.40;;;;;;5048707;28;20430;-76
2022/01/06 09:28:27;;;;;;;7.05;1.70;;;11.20;53.60;;;;;;5047747;28;20099;-76
2022/01/06 09:30:55;;;;;;;6.43;1.65;;;11.30;53.70;;;;;;5050419;28;20025;-76
2022/01/06 09:33:24;;;;;;;6.43;1.80;;;11.20;53.30;;;;;;5050725;28;20423;-78
2022/01/06 09:35:53;;;;;;;5.72;1.70;;;11.20;53.60;;;;;;5048017;28;20025;-74
2022/01/06 09:38:19;;;;;;;7.07;1.98;;;11.20;54.00;;;;;;5049781;28;20167;-76
2022/01/06 09:40:45;;;;;;;7.18;1.63;;;11.30;53.60;;;;;;5048509;28;20162;-78
2022/01/06 09:43:12;;;;;;;5.07;1.75;;;11.40;53.20;;;;;;5048007;28;20127;-75
2022/01/06 09:45:39;;;;;;;5.13;2.00;;;11.40;53.40;;;;;;5052631;28;20028;-77
2022/01/06 09:48:06;;;;;;;5.63;2.00;;;11.40;54.20;;;;;;5049521;28;20028;-78
2022/01/06 09:50:32;;;;;;;6.35;1.70;;;11.50;53.20;;;;;;5049373;28;20025;-74
2022/01/06 09:52:58;;;;;;;5.38;1.65;;;11.70;53.20;;;;;;5047751;28;20152;-77
2022/01/06 09:55:24;;;;;;;5.78;1.55;;;11.80;52.70;;;;;;5048547;28;20029;-76
2022/01/06 09:58:01;;;;;;;5.60;1.60;;;11.70;52.30;;;;;;5057828;28;20021;-74
2022/01/06 10:00:28;;;;;;;5.55;1.73;;;11.70;52.70;;;;;;5051497;28;20029;-74
2022/01/06 10:02:57;;;;;;;4.38;1.20;;;11.80;52.40;;;;;;5057267;28;20496;-73
2022/01/06 10:05:24;;;;;;;4.78;1.42;;;11.80;52.60;;;;;;5037821;28;20032;-73
2022/01/06 10:07:50;;;;;;;6.80;1.60;;;11.90;52.00;;;;;;5047561;28;20044;-74
2022/01/06 10:10:16;;;;;;;4.70;1.33;;;11.80;51.70;;;;;;5044418;28;20021;-76
2022/01/06 10:12:43;;;;;;;8.35;1.90;;;11.90;51.60;;;;;;5048559;28;20021;-74
2022/01/06 10:15:20;;;;;;;5.72;1.73;;;11.90;50.90;;;;;;5048879;28;20035;-75
2022/01/06 10:17:46;;;;;;;4.32;1.63;;;11.90;51.40;;;;;;5047212;28;20135;-75
2022/01/06 10:20:17;;;;;;;5.18;1.65;;;11.90;51.20;;;;;;5047514;28;20021;-76
2022/01/06 10:22:52;;;;;;;8.32;1.63;;;12.00;51.70;;;;;;5047824;28;20045;-67
2022/01/06 10:25:19;;;;;;;2.75;1.30;;;12.30;51.50;;;;;;5049711;28;20071;-64
2022/01/06 10:27:46;;;;;;;4.80;1.70;;;12.40;50.20;;;;;;5050555;28;20510;-65
2022/01/06 10:30:13;;;;;;;5.20;1.80;;;12.50;50.40;;;;;;5050838;28;20033;-64
2022/01/06 10:32:40;;;;;;;7.43;1.50;;;12.60;51.10;;;;;;5047631;28;20017;-64
2022/01/06 10:35:08;;;;;;;5.47;1.38;;;12.60;50.80;;;;;;5045303;28;20029;-64
2022/01/06 10:37:40;;;;;;;4.90;1.45;;;12.40;50.50;;;;;;5037360;28;20021;-64
2022/01/06 10:40:32;;;;;;;5.75;1.50;;;12.30;50.80;;;;;;5047077;28;20053;-63
2022/01/06 10:42:57;;;;;;;5.38;1.40;;;12.30;50.90;;;;;;5045249;28;20051;-73
2022/01/06 10:45:27;;;;;;;4.97;1.25;;;12.20;50.80;;;;;;5043728;28;20021;-73
2022/01/06 10:47:58;;;;;;;4.30;1.08;;;12.10;50.70;;;;;;5039778;28;20084;-73
2022/01/06 10:50:26;;;;;;;3.72;1.60;;;12.00;50.60;;;;;;5041767;28;20029;-73
2022/01/06 10:52:54;;;;;;;4.85;1.58;;;12.10;50.80;;;;;;5039723;28;20045;-73
2022/01/06 10:55:33;;;;;;;5.30;1.40;;;12.10;51.10;;;;;;5034439;28;20071;-73
2022/01/06 10:58:00;;;;;;;4.65;1.35;;;12.10;51.10;;;;;;5048892;28;20060;-73
2022/01/06 11:00:47;;;;;;;8.30;1.70;;;12.20;51.00;;;;;;5042922;28;20396;-73
2022/01/06 11:03:15;;;;;;;5.53;1.83;;;12.30;51.00;;;;;;5047700;28;20029;-72
2022/01/06 11:05:52;;;;;;;8.10;1.70;;;12.40;51.70;;;;;;5047175;28;20491;-72
2022/01/06 11:08:25;;;;;;;4.97;1.88;;;12.40;51.40;;;;;;5048393;28;20017;-73
2022/01/06 11:11:13;;;;;;;5.72;1.75;;;12.50;50.70;;;;;;5047405;28;20039;-73
2022/01/06 11:13:41;;;;;;;4.53;1.55;;;12.40;51.30;;;;;;5047085;28;20029;-73
2022/01/06 11:16:14;;;;;;;5.97;1.65;;;12.50;50.90;;;;;;5048186;28;20091;-72
2022/01/06 11:18:48;;;;;;;8.80;1.77;;;12.40;50.60;;;;;;5047214;28;20036;-73
2022/01/06 11:21:16;;;;;;;7.07;1.85;;;12.40;50.50;;;;;;5050124;28;20036;-73
2022/01/06 11:23:42;;;;;;;7.78;1.75;;;12.40;50.10;;;;;;5046846;28;20527;-72
2022/01/06 11:26:22;;;;;;;4.93;1.50;;;12.50;50.40;;;;;;5048591;28;20029;-72
2022/01/06 11:28:58;;;;;;;6.18;2.22;;;12.50;50.40;;;;;;5048557;28;20033;-73
2022/01/06 11:31:27;;;;;;;8.43;2.45;;;12.50;50.80;;;;;;5047955;28;20487;-73
2022/01/06 11:33:54;;;;;;;8.65;2.38;;;12.50;50.80;;;;;;5049097;28;20389;-71
2022/01/06 11:36:21;;;;;;;6.40;1.77;;;12.60;50.70;;;;;;5048767;28;20021;-71
2022/01/06 11:38:49;;;;;;;6.72;1.70;;;12.70;50.50;;;;;;5048082;28;20078;-72
2022/01/06 11:41:16;;;;;;;7.68;1.75;;;12.80;50.20;;;;;;5048484;28;20036;-72
2022/01/06 11:43:44;;;;;;;5.68;1.73;;;12.90;50.30;;;;;;5047360;28;20033;-72
2022/01/06 11:46:14;;;;;;;2.53;1.25;;;13.00;50.10;;;;;;5039451;28;20033;-72
2022/01/06 11:48:48;;;;;;;4.88;1.60;;;13.10;49.90;;;;;;5046682;28;20086;-72
2022/01/06 11:51:27;;;;;;;5.68;1.70;;;13.20;49.30;;;;;;5049896;28;20527;-72
2022/01/06 11:53:53;;;;;;;8.68;2.13;;;13.10;48.90;;;;;;5050825;28;20048;-72
2022/01/06 11:56:21;;;;;;;6.40;1.33;;;13.20;49.20;;;;;;5050990;28;20033;-72
2022/01/06 11:59:27;;;;;;;4.70;1.73;;;13.10;49.20;;;;;;5050217;28;20029;-72
2022/01/06 12:01:53;;;;;;;4.32;1.50;;;13.30;49.10;;;;;;5042291;28;20028;-72
2022/01/06 12:04:21;;;;;;;4.90;1.70;;;13.50;50.20;;;;;;5051047;28;20087;-72
2022/01/06 12:06:48;;;;;;;3.75;1.48;;;13.70;49.40;;;;;;5052620;28;20013;-72
2022/01/06 12:09:22;;;;;;;4.13;1.30;;;13.60;48.20;;;;;;5051062;28;20428;-72
2022/01/06 12:12:10;;;;;;;3.33;1.65;;;13.80;48.20;;;;;;5050002;28;20587;-72
2022/01/06 12:14:36;;;;;;;4.60;1.48;;;14.00;48.50;;;;;;5049544;28;20061;-72
2022/01/06 12:17:10;;;;;;;11.40;1.60;;;14.10;47.50;;;;;;5051884;28;20028;-72
2022/01/06 12:19:37;;;;;;;3.78;1.40;;;14.30;48.30;;;;;;5053094;28;20021;-71
2022/01/06 12:22:04;;;;;;;7.03;1.33;;;14.50;47.20;;;;;;5052004;28;20057;-72
2022/01/06 12:24:31;;;;;;;4.15;1.27;;;14.50;47.50;;;;;;5054192;28;20087;-72
2022/01/06 12:26:56;;;;;;;4.80;1.30;;;14.70;47.10;;;;;;5052012;28;20040;-71
2022/01/06 12:29:27;;;;;;;4.05;1.42;;;14.80;46.40;;;;;;5051467;28;20029;-72
2022/01/06 12:32:08;;;;;;;4.65;1.27;;;15.20;46.10;;;;;;5051577;28;20079;-72
2022/01/06 12:34:34;;;;;;;4.63;1.30;;;16.30;45.40;;;;;;5052635;28;20449;-72
2022/01/06 12:37:00;;;;;;;4.47;1.40;;;18.20;43.40;;;;;;5051655;28;20021;-72
2022/01/06 12:39:25;;;;;;;4.43;1.25;;;20.00;41.10;;;;;;5053161;28;20048;-72
2022/01/06 12:41:52;;;;;;;4.55;1.20;;;21.50;39.00;;;;;;5050992;28;20025;-73
2022/01/06 12:44:28;;;;;;;4.65;1.00;;;22.50;37.60;;;;;;5050512;28;20147;-72
2022/01/06 12:46:55;;;;;;;4.15;1.10;;;22.30;36.60;;;;;;5051144;28;20071;-72
2022/01/06 12:49:23;;;;;;;4.55;1.45;;;21.90;37.00;;;;;;5052315;28;20035;-73
2022/01/06 12:51:49;;;;;;;3.95;1.30;;;21.20;37.30;;;;;;5050607;28;20039;-73
2022/01/06 12:54:17;;;;;;;5.72;1.50;;;20.20;37.30;;;;;;5051302;28;20029;-74
2022/01/06 12:56:49;;;;;;;3.60;1.02;;;19.60;38.20;;;;;;5051367;28;20526;-73
2022/01/06 12:59:36;;;;;;;4.90;1.20;;;20.20;39.00;;;;;;5050498;28;20022;-74
2022/01/06 13:02:11;;;;;;;3.38;1.00;;;22.30;36.90;;;;;;5050371;28;20021;-75
2022/01/06 13:04:40;;;;;;;5.88;1.10;;;24.20;35.40;;;;;;5047682;28;20178;-74